Time;durP1;ratioP1;P1;durP2;ratioP2;P2;SDS_P1;SDS_P2;PMS_P1;PMS_P2;Temp;Humidity;BMP_temperature;BMP_pressure;BME280_temperature;BME280_humidity;BME280_pressure;Samples;Min_cycle;Max_cycle;Signal;HPM_P1;HPM_P2
2021/06/22 00:00:26;;;;;;;11.25;4.63;;;25.30;43.20;;;;;;5009624;28;20033;-64
2021/06/22 00:02:52;;;;;;;12.82;3.75;;;25.30;43.50;;;;;;5005604;28;20045;-64
2021/06/22 00:05:18;;;;;;;14.00;3.85;;;25.30;43.70;;;;;;5012882;28;20399;-65
2021/06/22 00:07:45;;;;;;;10.07;3.35;;;25.40;43.90;;;;;;5010980;28;20033;-65
2021/06/22 00:10:12;;;;;;;11.13;3.90;;;25.30;44.20;;;;;;5005016;28;20516;-65
2021/06/22 00:12:38;;;;;;;10.90;3.90;;;25.20;43.90;;;;;;5010213;28;20045;-64
2021/06/22 00:15:05;;;;;;;7.00;3.60;;;25.10;44.30;;;;;;5005336;28;20046;-61
2021/06/22 00:17:31;;;;;;;14.98;4.43;;;25.10;44.70;;;;;;5002526;28;20504;-65
2021/06/22 00:19:57;;;;;;;8.77;4.25;;;25.20;45.00;;;;;;5003786;28;20049;-65
2021/06/22 00:22:22;;;;;;;14.07;3.92;;;25.10;45.20;;;;;;5007259;28;20503;-65
2021/06/22 00:24:48;;;;;;;9.52;3.38;;;25.10;44.80;;;;;;4998284;28;20057;-64
2021/06/22 00:27:14;;;;;;;11.20;4.57;;;25.10;45.10;;;;;;5007393;28;20046;-64
2021/06/22 00:29:43;;;;;;;12.23;4.05;;;25.10;45.00;;;;;;5017020;28;20033;-64
2021/06/22 00:32:10;;;;;;;16.75;3.70;;;25.10;45.50;;;;;;5016157;28;20041;-64
2021/06/22 00:34:36;;;;;;;10.05;3.92;;;25.10;45.40;;;;;;5012228;28;21050;-65
2021/06/22 00:37:02;;;;;;;12.27;3.88;;;25.10;45.40;;;;;;5008161;28;20046;-65
2021/06/22 00:39:28;;;;;;;9.68;3.53;;;25.00;45.60;;;;;;5008258;28;20045;-65
2021/06/22 00:41:53;;;;;;;9.65;3.35;;;25.00;45.50;;;;;;5003258;28;20030;-64
2021/06/22 00:44:19;;;;;;;11.90;3.88;;;25.10;45.60;;;;;;5012388;28;20045;-64
2021/06/22 00:46:44;;;;;;;14.25;4.72;;;24.90;45.60;;;;;;4999275;28;20187;-64
2021/06/22 00:49:10;;;;;;;10.43;3.70;;;24.90;46.10;;;;;;5002489;28;20037;-65
2021/06/22 00:51:36;;;;;;;15.85;4.28;;;25.00;46.10;;;;;;5008763;28;20029;-65
2021/06/22 00:54:02;;;;;;;12.25;4.13;;;25.00;46.10;;;;;;5016280;28;20494;-65
2021/06/22 00:56:31;;;;;;;9.55;3.83;;;24.90;46.20;;;;;;5019451;28;20041;-65
2021/06/22 00:58:58;;;;;;;11.95;4.10;;;24.80;46.70;;;;;;5034009;28;20053;-65
2021/06/22 01:01:23;;;;;;;9.73;4.25;;;24.80;46.70;;;;;;5015514;28;20087;-65
2021/06/22 01:03:49;;;;;;;17.15;4.20;;;24.80;47.00;;;;;;5007116;28;20509;-64
2021/06/22 01:06:15;;;;;;;11.25;3.78;;;24.80;47.10;;;;;;5007857;28;20045;-64
2021/06/22 01:08:40;;;;;;;11.50;3.65;;;24.80;47.40;;;;;;5010116;28;20050;-63
2021/06/22 01:11:06;;;;;;;8.98;4.03;;;24.90;47.10;;;;;;5001101;28;20034;-62
2021/06/22 01:13:32;;;;;;;7.75;4.15;;;24.70;47.90;;;;;;5006749;28;20484;-64
2021/06/22 01:15:58;;;;;;;14.93;3.20;;;24.70;47.60;;;;;;5002881;28;20182;-65
2021/06/22 01:18:23;;;;;;;11.05;3.78;;;24.70;48.00;;;;;;5005822;28;20046;-65
2021/06/22 01:20:54;;;;;;;13.07;4.05;;;24.70;47.90;;;;;;5007835;28;20030;-65
2021/06/22 01:23:19;;;;;;;9.95;3.53;;;24.70;47.90;;;;;;5011830;28;20057;-65
2021/06/22 01:25:45;;;;;;;12.95;4.55;;;24.70;48.00;;;;;;5008799;28;20396;-65
2021/06/22 01:28:10;;;;;;;11.75;3.72;;;24.70;48.00;;;;;;5008065;28;20088;-65
2021/06/22 01:30:36;;;;;;;10.82;4.07;;;24.60;48.20;;;;;;5014287;28;20038;-65
2021/06/22 01:33:02;;;;;;;11.13;3.88;;;24.60;48.90;;;;;;5003210;28;20045;-65
2021/06/22 01:35:28;;;;;;;13.40;4.10;;;24.70;48.80;;;;;;5021374;28;20038;-66
2021/06/22 01:37:55;;;;;;;9.23;4.13;;;24.50;48.90;;;;;;5012016;28;20136;-65
2021/06/22 01:40:22;;;;;;;10.05;3.45;;;24.40;48.80;;;;;;5014606;28;20108;-65
2021/06/22 01:42:47;;;;;;;9.43;3.53;;;24.40;49.00;;;;;;5004596;28;20044;-65
2021/06/22 01:45:14;;;;;;;15.13;4.95;;;24.50;49.00;;;;;;5003857;28;20034;-65
2021/06/22 01:47:41;;;;;;;11.10;3.80;;;24.50;49.20;;;;;;4998964;28;20057;-65
2021/06/22 01:50:07;;;;;;;7.50;3.60;;;24.40;49.00;;;;;;5007771;28;20120;-63
2021/06/22 01:52:33;;;;;;;12.10;3.85;;;24.40;49.70;;;;;;5001433;28;20065;-66
2021/06/22 01:55:05;;;;;;;10.00;3.42;;;24.30;49.70;;;;;;5018590;28;20073;-65
2021/06/22 01:57:30;;;;;;;9.73;3.85;;;24.30;49.70;;;;;;5014228;28;20061;-65
2021/06/22 01:59:56;;;;;;;7.63;3.08;;;24.20;49.50;;;;;;5015697;28;20490;-65
2021/06/22 02:02:21;;;;;;;15.07;4.05;;;24.40;49.60;;;;;;5003199;28;20034;-65
2021/06/22 02:04:47;;;;;;;11.30;4.07;;;24.40;49.20;;;;;;5002705;28;20076;-65
2021/06/22 02:07:13;;;;;;;8.00;3.55;;;24.30;49.30;;;;;;5010360;28;20050;-65
2021/06/22 02:09:39;;;;;;;10.85;3.65;;;24.40;49.20;;;;;;5009420;28;20042;-65
2021/06/22 02:12:05;;;;;;;14.45;3.22;;;24.50;49.20;;;;;;5012210;28;20049;-65
2021/06/22 02:14:30;;;;;;;8.77;3.38;;;24.40;49.20;;;;;;5013852;28;20100;-65
2021/06/22 02:16:56;;;;;;;13.60;4.10;;;24.40;49.70;;;;;;5011030;28;20062;-65
2021/06/22 02:19:22;;;;;;;14.10;3.30;;;24.50;49.30;;;;;;5015882;28;20454;-65
2021/06/22 02:21:47;;;;;;;10.18;3.90;;;24.50;49.30;;;;;;5004776;28;20035;-65
2021/06/22 02:24:13;;;;;;;6.70;2.90;;;24.50;49.40;;;;;;5007962;28;20038;-65
2021/06/22 02:26:38;;;;;;;12.07;3.38;;;24.40;49.20;;;;;;5011604;28;20168;-64
2021/06/22 02:29:04;;;;;;;7.75;3.33;;;24.50;49.20;;;;;;5016249;28;20034;-65
2021/06/22 02:31:30;;;;;;;7.05;3.10;;;24.40;49.30;;;;;;5018211;28;20038;-65
2021/06/22 02:33:55;;;;;;;9.98;3.70;;;24.40;49.80;;;;;;5006273;28;20034;-65
2021/06/22 02:36:24;;;;;;;9.20;3.45;;;24.30;49.70;;;;;;5017661;28;20393;-65
2021/06/22 02:38:50;;;;;;;7.35;3.03;;;24.30;49.60;;;;;;5009675;28;20088;-65
2021/06/22 02:41:16;;;;;;;7.45;3.28;;;24.40;49.80;;;;;;5012083;28;20137;-65
2021/06/22 02:43:41;;;;;;;10.95;4.75;;;24.40;50.10;;;;;;5014366;28;20133;-65
2021/06/22 02:46:07;;;;;;;8.27;3.50;;;24.40;50.00;;;;;;5049121;28;20048;-64
2021/06/22 02:48:33;;;;;;;6.18;2.70;;;24.30;49.80;;;;;;5027163;28;20038;-65
2021/06/22 02:51:02;;;;;;;7.95;2.88;;;24.30;49.60;;;;;;5001309;28;20387;-65
2021/06/22 02:53:28;;;;;;;5.93;2.88;;;24.30;50.70;;;;;;5026773;28;20687;-65
2021/06/22 02:55:53;;;;;;;9.30;3.17;;;24.30;49.80;;;;;;5003078;28;20117;-66
2021/06/22 02:58:19;;;;;;;6.35;3.00;;;24.30;50.10;;;;;;5007595;28;20054;-67
2021/06/22 03:00:44;;;;;;;10.35;3.05;;;24.40;50.10;;;;;;4999671;28;20041;-65
2021/06/22 03:03:11;;;;;;;7.85;3.03;;;24.30;50.40;;;;;;5007653;28;20052;-65
2021/06/22 03:05:36;;;;;;;8.50;3.08;;;24.20;50.50;;;;;;5007688;28;20044;-61
2021/06/22 03:08:02;;;;;;;9.15;3.40;;;24.20;50.90;;;;;;5005855;28;20109;-66
2021/06/22 03:10:28;;;;;;;5.65;3.40;;;24.30;50.60;;;;;;4998830;28;22469;-64
2021/06/22 03:12:54;;;;;;;12.90;4.18;;;24.20;50.20;;;;;;5003861;28;20506;-65
2021/06/22 03:15:21;;;;;;;5.78;2.95;;;24.20;50.30;;;;;;5008859;28;20046;-64
2021/06/22 03:17:47;;;;;;;7.53;3.33;;;24.20;50.40;;;;;;5001013;28;20050;-64
2021/06/22 03:20:13;;;;;;;6.82;2.85;;;24.20;50.60;;;;;;5004968;28;20463;-65
2021/06/22 03:22:40;;;;;;;7.47;3.72;;;24.30;50.40;;;;;;5010491;28;20057;-64
2021/06/22 03:25:07;;;;;;;5.03;3.13;;;24.20;50.40;;;;;;5002508;28;20057;-65
2021/06/22 03:27:34;;;;;;;6.90;3.47;;;24.30;50.20;;;;;;4998405;28;20053;-64
2021/06/22 03:29:59;;;;;;;10.52;3.88;;;24.30;50.20;;;;;;5002152;28;20383;-65
2021/06/22 03:32:25;;;;;;;7.45;3.60;;;24.20;50.30;;;;;;5012808;28;20092;-64
2021/06/22 03:34:52;;;;;;;5.93;3.15;;;24.30;50.20;;;;;;5025299;28;20045;-64
2021/06/22 03:37:17;;;;;;;9.38;3.72;;;24.20;50.20;;;;;;5026852;28;20153;-65
2021/06/22 03:39:43;;;;;;;7.53;3.35;;;24.20;50.60;;;;;;5021917;28;20132;-65
2021/06/22 03:42:09;;;;;;;9.23;2.90;;;24.30;50.30;;;;;;4999111;28;20045;-65
2021/06/22 03:44:35;;;;;;;6.80;2.97;;;24.40;50.20;;;;;;5014959;28;20104;-65
2021/06/22 03:47:01;;;;;;;7.05;2.78;;;24.30;50.20;;;;;;5014826;28;20693;-66
2021/06/22 03:49:27;;;;;;;11.05;3.33;;;24.20;50.00;;;;;;5015253;28;20411;-66
2021/06/22 03:51:54;;;;;;;5.05;3.20;;;24.30;50.10;;;;;;5008213;28;20041;-66
2021/06/22 03:54:19;;;;;;;10.30;3.25;;;24.30;49.90;;;;;;5014965;28;20038;-65
2021/06/22 03:56:45;;;;;;;5.63;3.50;;;24.30;50.00;;;;;;5001563;28;20046;-65
2021/06/22 03:59:11;;;;;;;8.52;3.30;;;24.30;50.30;;;;;;4997483;28;20411;-66
2021/06/22 04:01:36;;;;;;;8.60;2.97;;;24.30;50.40;;;;;;5010004;28;20092;-66
2021/06/22 04:04:02;;;;;;;6.90;3.13;;;24.30;50.50;;;;;;5004752;28;20076;-66
2021/06/22 04:06:28;;;;;;;7.38;3.58;;;24.40;50.40;;;;;;5004077;28;20041;-65
2021/06/22 04:08:53;;;;;;;11.88;3.03;;;24.40;50.20;;;;;;5001637;28;20034;-66
2021/06/22 04:11:19;;;;;;;12.15;3.28;;;24.40;50.10;;;;;;5005719;28;20092;-66
2021/06/22 04:13:45;;;;;;;6.55;2.97;;;24.50;50.10;;;;;;5005173;28;20037;-66
2021/06/22 04:16:11;;;;;;;6.57;3.20;;;24.60;50.00;;;;;;5009608;28;20037;-66
2021/06/22 04:18:36;;;;;;;5.90;3.10;;;24.60;49.80;;;;;;4998362;28;20042;-66
2021/06/22 04:21:02;;;;;;;9.93;3.35;;;24.50;50.00;;;;;;5007330;28;20034;-65
2021/06/22 04:23:27;;;;;;;7.20;2.83;;;24.50;50.20;;;;;;5001273;28;20046;-66
2021/06/22 04:25:53;;;;;;;7.55;3.10;;;24.50;49.80;;;;;;5011437;28;20427;-66
2021/06/22 04:28:19;;;;;;;5.53;3.72;;;24.50;50.00;;;;;;5001512;28;20050;-66
2021/06/22 04:30:45;;;;;;;10.48;3.28;;;24.60;49.80;;;;;;5009103;28;20030;-66
2021/06/22 04:33:12;;;;;;;8.50;3.25;;;24.60;49.80;;;;;;5004104;28;20033;-65
2021/06/22 04:35:38;;;;;;;7.05;2.83;;;24.60;49.60;;;;;;5018098;28;20040;-62
2021/06/22 04:38:05;;;;;;;6.78;3.00;;;24.70;49.60;;;;;;5021476;28;20458;-66
2021/06/22 04:40:34;;;;;;;6.15;3.40;;;24.80;49.50;;;;;;5010406;28;20451;-66
2021/06/22 04:43:00;;;;;;;8.95;3.42;;;24.90;49.60;;;;;;5019652;28;20066;-66
2021/06/22 04:45:27;;;;;;;9.75;2.83;;;24.90;49.30;;;;;;5008442;28;20561;-66
2021/06/22 04:47:53;;;;;;;5.85;3.28;;;24.90;49.40;;;;;;4999867;28;20034;-65
2021/06/22 04:50:19;;;;;;;6.75;3.10;;;24.90;49.70;;;;;;4994522;28;20391;-66
2021/06/22 04:52:45;;;;;;;10.35;3.08;;;24.90;49.30;;;;;;5005949;28;20034;-64
2021/06/22 04:55:15;;;;;;;6.90;3.15;;;25.00;49.50;;;;;;4998383;28;20038;-64
2021/06/22 04:57:42;;;;;;;11.85;3.42;;;25.00;49.10;;;;;;5013017;28;20048;-64
2021/06/22 05:00:08;;;;;;;9.90;3.80;;;25.00;49.30;;;;;;5031688;28;20116;-63
2021/06/22 05:02:34;;;;;;;10.07;3.30;;;24.90;49.40;;;;;;5022013;28;20054;-65
2021/06/22 05:05:03;;;;;;;7.70;3.17;;;25.00;49.20;;;;;;5016826;28;20045;-64
2021/06/22 05:07:30;;;;;;;6.68;2.97;;;25.00;49.20;;;;;;5014697;28;20041;-64
2021/06/22 05:09:56;;;;;;;6.85;3.05;;;25.00;48.90;;;;;;5004889;28;20160;-65
2021/06/22 05:12:22;;;;;;;6.25;3.17;;;24.90;49.30;;;;;;5003610;28;20069;-65
2021/06/22 05:14:48;;;;;;;11.88;3.55;;;25.00;49.20;;;;;;5000505;28;20070;-65
2021/06/22 05:17:13;;;;;;;7.85;3.30;;;25.00;49.20;;;;;;5015559;28;20481;-64
2021/06/22 05:19:39;;;;;;;9.40;3.20;;;25.00;49.30;;;;;;5008745;28;20486;-63
2021/06/22 05:22:04;;;;;;;6.25;3.10;;;25.00;49.10;;;;;;5004318;28;20392;-64
2021/06/22 05:24:30;;;;;;;8.38;3.65;;;25.00;49.00;;;;;;5012336;28;20076;-65
2021/06/22 05:26:56;;;;;;;5.70;2.92;;;25.10;49.00;;;;;;5001990;28;20045;-65
2021/06/22 05:29:21;;;;;;;11.25;3.58;;;25.10;48.90;;;;;;5013239;28;20038;-65
2021/06/22 05:31:47;;;;;;;8.73;2.55;;;25.10;48.80;;;;;;5011054;28;20041;-64
2021/06/22 05:34:12;;;;;;;8.25;2.63;;;25.00;48.70;;;;;;5007049;28;20112;-64
2021/06/22 05:36:38;;;;;;;4.88;2.42;;;25.00;48.60;;;;;;5010134;28;20053;-63
2021/06/22 05:39:04;;;;;;;9.70;2.75;;;25.00;48.20;;;;;;5010530;28;20069;-65
2021/06/22 05:41:29;;;;;;;10.27;3.53;;;25.10;48.40;;;;;;5001460;28;20460;-65
2021/06/22 05:43:55;;;;;;;7.78;2.80;;;25.00;48.40;;;;;;5021421;28;20049;-65
2021/06/22 05:46:21;;;;;;;7.72;3.25;;;25.10;48.20;;;;;;5003655;28;20073;-65
2021/06/22 05:48:46;;;;;;;8.57;3.35;;;25.20;48.20;;;;;;5005422;28;20041;-64
2021/06/22 05:51:12;;;;;;;8.00;3.22;;;25.20;48.70;;;;;;5003219;28;20534;-65
2021/06/22 05:53:37;;;;;;;4.75;3.22;;;25.20;47.80;;;;;;5002702;28;20065;-61
2021/06/22 05:56:03;;;;;;;7.72;3.33;;;25.20;47.70;;;;;;5006412;28;20030;-65
2021/06/22 05:58:29;;;;;;;8.68;3.47;;;25.30;47.80;;;;;;5005896;28;20480;-65
2021/06/22 06:00:54;;;;;;;7.88;3.55;;;25.30;47.60;;;;;;5014761;28;20037;-65
2021/06/22 06:03:20;;;;;;;10.30;3.58;;;25.20;47.40;;;;;;4997696;28;20106;-64
2021/06/22 06:05:45;;;;;;;8.98;3.25;;;25.30;47.70;;;;;;5016546;28;20041;-64
2021/06/22 06:08:11;;;;;;;9.15;3.30;;;25.20;47.30;;;;;;5018419;28;20043;-65
2021/06/22 06:10:37;;;;;;;11.38;3.17;;;25.20;47.50;;;;;;5003932;28;20124;-64
2021/06/22 06:13:03;;;;;;;10.27;3.13;;;25.20;47.50;;;;;;5019445;28;20411;-65
2021/06/22 06:15:28;;;;;;;7.47;2.45;;;25.10;47.00;;;;;;5018089;28;20041;-65
2021/06/22 06:17:54;;;;;;;6.20;2.63;;;25.30;47.00;;;;;;5002626;28;20045;-65
2021/06/22 06:20:20;;;;;;;5.97;2.60;;;25.30;46.50;;;;;;5010231;28;20033;-65
2021/06/22 06:22:47;;;;;;;4.78;2.47;;;25.30;46.50;;;;;;5002453;28;20045;-64
2021/06/22 06:25:13;;;;;;;9.35;3.25;;;25.40;46.50;;;;;;5005884;28;20050;-64
2021/06/22 06:27:49;;;;;;;7.82;2.80;;;25.40;46.30;;;;;;5014953;28;20482;-64
2021/06/22 06:30:22;;;;;;;9.85;3.45;;;25.50;46.40;;;;;;5003073;28;20034;-65
2021/06/22 06:32:49;;;;;;;5.47;2.55;;;25.50;46.00;;;;;;5002917;28;20108;-64
2021/06/22 06:35:17;;;;;;;9.98;3.13;;;25.60;46.30;;;;;;5002377;28;20399;-63
2021/06/22 06:37:43;;;;;;;7.28;3.05;;;25.60;46.00;;;;;;5011130;28;20045;-64
2021/06/22 06:40:09;;;;;;;11.80;3.28;;;25.70;45.80;;;;;;5002615;28;20127;-63
2021/06/22 06:42:35;;;;;;;7.90;3.22;;;25.70;45.60;;;;;;5013156;28;20052;-64
2021/06/22 06:45:01;;;;;;;6.00;2.80;;;25.80;45.40;;;;;;5007930;28;20532;-64
2021/06/22 06:47:27;;;;;;;7.78;2.80;;;25.70;45.80;;;;;;5018446;28;20047;-64
2021/06/22 06:49:53;;;;;;;6.53;3.30;;;25.80;46.00;;;;;;5013671;28;20089;-64
2021/06/22 06:52:19;;;;;;;8.00;3.25;;;25.90;46.00;;;;;;5010296;28;20034;-63
2021/06/22 06:54:44;;;;;;;6.32;3.20;;;25.80;45.70;;;;;;5004358;28;20042;-64
2021/06/22 06:57:10;;;;;;;9.77;3.85;;;25.90;46.00;;;;;;5007677;28;20132;-64
2021/06/22 06:59:36;;;;;;;9.20;3.50;;;25.90;46.60;;;;;;4997920;28;20573;-65
2021/06/22 07:02:02;;;;;;;7.82;3.60;;;25.90;46.10;;;;;;4998140;28;20037;-65
2021/06/22 07:04:28;;;;;;;8.45;3.60;;;26.00;46.00;;;;;;5000702;28;20046;-66
2021/06/22 07:06:54;;;;;;;8.80;3.30;;;26.00;46.20;;;;;;5001269;28;20037;-65
2021/06/22 07:09:19;;;;;;;6.80;3.08;;;25.90;46.30;;;;;;5005760;28;20049;-65
2021/06/22 07:11:45;;;;;;;8.18;3.00;;;25.80;46.30;;;;;;5006070;28;20038;-66
2021/06/22 07:14:14;;;;;;;9.18;3.38;;;25.90;46.30;;;;;;5001742;28;20073;-65
2021/06/22 07:16:41;;;;;;;8.05;3.25;;;26.00;46.20;;;;;;4996896;28;20092;-65
2021/06/22 07:19:07;;;;;;;8.57;3.58;;;26.10;46.10;;;;;;4996959;28;20511;-66
2021/06/22 07:21:32;;;;;;;9.70;3.15;;;26.20;45.80;;;;;;4995311;28;20117;-66
2021/06/22 07:23:58;;;;;;;8.57;3.92;;;26.30;45.80;;;;;;5003692;28;20557;-65
2021/06/22 07:26:24;;;;;;;8.30;3.25;;;26.20;45.80;;;;;;4994966;28;20050;-65
2021/06/22 07:28:50;;;;;;;12.93;3.80;;;26.30;46.00;;;;;;5008975;28;20042;-65
2021/06/22 07:31:16;;;;;;;11.20;3.83;;;26.20;45.60;;;;;;5006707;28;21705;-65
2021/06/22 07:33:42;;;;;;;10.95;4.05;;;26.30;45.80;;;;;;5002946;28;20045;-64
2021/06/22 07:36:08;;;;;;;9.02;3.83;;;26.40;45.60;;;;;;4995703;28;20038;-65
2021/06/22 07:38:34;;;;;;;7.22;3.15;;;26.50;45.00;;;;;;5001934;28;20064;-65
2021/06/22 07:41:00;;;;;;;9.60;4.03;;;26.50;44.90;;;;;;4999424;28;20133;-65
2021/06/22 07:43:26;;;;;;;9.75;3.30;;;26.30;45.10;;;;;;5012250;28;20612;-65
2021/06/22 07:45:52;;;;;;;9.82;3.70;;;26.30;44.90;;;;;;5013388;28;20067;-66
2021/06/22 07:48:18;;;;;;;8.98;3.22;;;26.50;45.20;;;;;;5015945;28;20045;-65
2021/06/22 07:50:43;;;;;;;10.10;3.03;;;26.50;45.10;;;;;;5010282;28;20029;-65
2021/06/22 07:53:09;;;;;;;11.75;4.10;;;26.60;44.80;;;;;;5005217;28;20069;-65
2021/06/22 07:55:35;;;;;;;8.82;3.63;;;26.70;44.80;;;;;;4996909;28;20052;-65
2021/06/22 07:58:01;;;;;;;11.10;3.45;;;26.70;44.50;;;;;;4993366;28;20076;-65
2021/06/22 08:02:54;;;;;;;10.63;3.65;;;27.00;44.20;;;;;;5000514;28;20038;-65
2021/06/22 08:05:19;;;;;;;10.15;3.47;;;27.00;44.00;;;;;;5000791;28;20053;-65
2021/06/22 08:07:45;;;;;;;10.38;3.42;;;27.00;43.90;;;;;;4995660;28;20054;-65
2021/06/22 08:10:11;;;;;;;7.13;3.60;;;26.90;44.00;;;;;;4996071;28;20546;-65
2021/06/22 08:12:36;;;;;;;9.38;3.40;;;27.00;43.80;;;;;;5003358;28;20071;-66
2021/06/22 08:15:03;;;;;;;6.85;3.05;;;27.10;43.90;;;;;;5017502;28;20152;-65
2021/06/22 08:17:28;;;;;;;5.60;3.25;;;27.00;43.50;;;;;;5009389;28;20460;-65
2021/06/22 08:19:54;;;;;;;7.57;3.72;;;27.10;43.40;;;;;;5013289;28;20030;-65
2021/06/22 08:22:20;;;;;;;6.60;3.33;;;27.00;43.40;;;;;;5008045;28;20127;-66
2021/06/22 08:24:45;;;;;;;8.73;3.60;;;27.20;43.80;;;;;;5013852;28;20056;-65
2021/06/22 08:27:11;;;;;;;8.52;3.17;;;27.20;42.90;;;;;;5003475;28;20050;-65
2021/06/22 08:29:36;;;;;;;11.88;3.38;;;27.20;42.70;;;;;;5015858;28;20042;-65
2021/06/22 08:32:03;;;;;;;9.70;3.20;;;27.20;42.80;;;;;;5010106;28;20034;-65
2021/06/22 08:34:29;;;;;;;5.25;3.58;;;27.30;42.50;;;;;;5008748;28;20107;-65
2021/06/22 08:36:54;;;;;;;7.85;3.60;;;27.20;43.10;;;;;;5006738;28;20034;-65
2021/06/22 08:39:20;;;;;;;5.80;2.90;;;27.10;42.90;;;;;;5003307;28;20525;-65
2021/06/22 08:41:47;;;;;;;8.10;3.40;;;27.10;43.20;;;;;;5012122;28;20045;-65
2021/06/22 08:44:17;;;;;;;7.05;2.78;;;27.30;42.80;;;;;;5005183;28;20045;-65
2021/06/22 08:46:44;;;;;;;11.98;3.75;;;27.40;43.00;;;;;;5008604;28;20136;-65
2021/06/22 08:49:12;;;;;;;10.10;3.33;;;27.70;42.70;;;;;;4999949;28;20092;-64
2021/06/22 08:51:38;;;;;;;6.03;3.42;;;27.80;42.10;;;;;;5024526;28;20034;-65
2021/06/22 08:54:07;;;;;;;7.20;3.10;;;27.70;41.90;;;;;;5012349;28;20045;-65
2021/06/22 08:56:34;;;;;;;9.90;3.50;;;27.70;41.60;;;;;;5005100;28;20033;-66
2021/06/22 08:59:00;;;;;;;6.43;3.38;;;27.90;42.00;;;;;;5013898;28;21269;-65
2021/06/22 09:01:25;;;;;;;9.02;3.28;;;28.10;41.40;;;;;;5012879;28;20128;-65
2021/06/22 09:03:51;;;;;;;8.43;3.47;;;28.20;41.20;;;;;;5010578;28;20445;-66
2021/06/22 09:06:17;;;;;;;7.32;3.17;;;28.40;40.90;;;;;;5005233;28;20038;-65
2021/06/22 09:08:53;;;;;;;10.57;4.05;;;28.30;40.80;;;;;;5049995;28;20037;-65
2021/06/22 09:11:20;;;;;;;7.68;3.28;;;28.30;40.50;;;;;;5004918;28;20483;-67
2021/06/22 09:14:03;;;;;;;8.20;3.80;;;28.40;40.60;;;;;;5014331;28;20044;-65
2021/06/22 09:16:30;;;;;;;11.40;3.35;;;28.30;40.40;;;;;;5001228;28;20045;-65
2021/06/22 09:19:07;;;;;;;8.07;4.05;;;28.50;40.70;;;;;;5010937;28;20057;-65
2021/06/22 09:21:44;;;;;;;5.93;2.63;;;28.50;38.70;;;;;;5006918;28;20076;-65
2021/06/22 09:24:21;;;;;;;8.55;3.95;;;28.50;39.60;;;;;;5042765;28;20045;-64
2021/06/22 09:26:49;;;;;;;8.48;3.13;;;28.50;40.20;;;;;;5000626;28;20084;-64
2021/06/22 09:29:17;;;;;;;7.55;4.10;;;28.60;39.70;;;;;;5006581;28;20037;-64
2021/06/22 09:31:50;;;;;;;9.95;3.75;;;28.70;39.80;;;;;;4999920;28;20054;-63
2021/06/22 09:34:18;;;;;;;9.88;3.97;;;28.80;39.20;;;;;;5011124;28;20040;-63
2021/06/22 09:36:51;;;;;;;5.32;3.83;;;28.80;38.90;;;;;;4996808;28;20041;-65
2021/06/22 09:39:17;;;;;;;8.30;3.28;;;28.90;38.20;;;;;;5003324;28;21309;-65
2021/06/22 09:41:43;;;;;;;13.23;4.70;;;29.00;38.30;;;;;;5001753;28;20061;-66
2021/06/22 09:44:21;;;;;;;8.68;3.33;;;29.10;38.40;;;;;;4999927;28;20126;-62
2021/06/22 09:46:49;;;;;;;8.43;3.45;;;29.10;38.40;;;;;;5001645;28;20129;-66
2021/06/22 09:49:23;;;;;;;6.97;3.28;;;28.90;38.40;;;;;;5015721;28;20137;-65
2021/06/22 09:54:34;;;;;;;9.35;3.80;;;29.00;38.50;;;;;;5004385;28;20495;-65
2021/06/22 09:57:09;;;;;;;9.15;3.58;;;29.00;38.50;;;;;;5031942;28;20045;-65
2021/06/22 09:59:56;;;;;;;10.13;3.03;;;29.10;38.40;;;;;;5002995;28;20503;-66
2021/06/22 10:02:26;;;;;;;10.23;3.80;;;29.30;36.40;;;;;;4980648;28;20076;-67
2021/06/22 10:04:59;;;;;;;8.73;2.75;;;29.60;36.00;;;;;;5003726;28;20146;-67
2021/06/22 10:07:26;;;;;;;11.88;3.22;;;30.10;35.30;;;;;;5002970;28;20053;-71
2021/06/22 10:10:05;;;;;;;9.18;3.28;;;30.10;35.40;;;;;;5011754;28;20060;-73
2021/06/22 10:12:32;;;;;;;5.97;2.65;;;30.30;34.30;;;;;;5004174;28;20634;-72
2021/06/22 10:15:03;;;;;;;5.82;3.35;;;30.20;34.40;;;;;;5014310;28;20065;-72
2021/06/22 10:17:30;;;;;;;9.68;3.80;;;30.50;33.90;;;;;;5001152;28;20054;-72
2021/06/22 10:20:02;;;;;;;6.88;3.35;;;30.90;33.90;;;;;;5000989;28;20065;-72
2021/06/22 10:22:31;;;;;;;8.25;2.90;;;30.90;33.50;;;;;;5015221;28;20044;-72
2021/06/22 10:25:00;;;;;;;7.90;2.83;;;30.80;33.50;;;;;;5011336;28;20050;-73
2021/06/22 10:27:28;;;;;;;7.68;3.10;;;30.70;34.10;;;;;;5012543;28;20936;-73
2021/06/22 10:30:00;;;;;;;7.57;3.25;;;31.00;33.80;;;;;;5023806;28;20517;-70
2021/06/22 10:32:27;;;;;;;8.13;3.10;;;31.10;33.60;;;;;;5014470;28;20499;-68
2021/06/22 10:34:55;;;;;;;5.63;3.05;;;31.50;33.10;;;;;;5026325;28;20041;-67
2021/06/22 10:37:31;;;;;;;10.02;3.10;;;31.80;32.30;;;;;;5017456;28;20049;-67
2021/06/22 10:40:01;;;;;;;8.10;3.30;;;31.40;32.20;;;;;;5004637;28;20431;-68
2021/06/22 10:42:40;;;;;;;11.25;4.00;;;31.50;32.20;;;;;;5017936;28;20053;-67
2021/06/22 10:45:06;;;;;;;7.85;3.38;;;31.20;33.10;;;;;;5020928;28;20045;-63
2021/06/22 10:47:34;;;;;;;12.95;5.45;;;31.50;32.10;;;;;;5020476;28;20042;-63
2021/06/22 10:50:05;;;;;;;3.30;2.65;;;31.30;31.90;;;;;;5003686;28;20493;-64
2021/06/22 10:52:51;;;;;;;6.38;3.00;;;32.10;31.50;;;;;;5006038;28;20037;-70
2021/06/22 10:55:21;;;;;;;7.20;3.45;;;32.40;30.00;;;;;;4977585;28;20037;-68
2021/06/22 10:58:05;;;;;;;7.72;3.83;;;33.20;29.70;;;;;;5015596;28;20068;-67
2021/06/22 11:00:40;;;;;;;6.57;3.30;;;34.10;28.30;;;;;;5011843;28;20052;-67
2021/06/22 11:03:06;;;;;;;11.40;4.05;;;35.20;27.40;;;;;;5011634;28;20060;-67
2021/06/22 11:05:34;;;;;;;10.43;3.70;;;35.90;27.20;;;;;;5016081;28;20045;-67
2021/06/22 11:08:33;;;;;;;8.23;3.20;;;37.40;26.50;;;;;;5020216;28;20052;-66
2021/06/22 11:10:59;;;;;;;5.30;3.65;;;38.30;27.60;;;;;;4982975;28;20045;-67
2021/06/22 11:13:44;;;;;;;8.82;3.45;;;37.70;24.70;;;;;;5010366;28;20033;-67
2021/06/22 11:16:13;;;;;;;11.40;5.25;;;38.00;24.90;;;;;;5000059;28;20526;-63
2021/06/22 11:19:00;;;;;;;7.22;3.20;;;37.70;24.70;;;;;;5015077;28;20069;-67
2021/06/22 11:21:44;;;;;;;4.72;3.55;;;38.10;24.80;;;;;;4982002;28;20042;-68
2021/06/22 11:24:11;;;;;;;5.43;3.30;;;37.40;24.80;;;;;;5006096;28;20046;-68
2021/06/22 11:26:45;;;;;;;7.72;3.25;;;36.40;25.10;;;;;;5010070;28;20145;-67
2021/06/22 11:29:12;;;;;;;5.70;3.58;;;36.60;25.40;;;;;;4999243;28;20048;-65
2021/06/22 11:31:53;;;;;;;7.40;3.80;;;36.70;25.40;;;;;;5003145;28;20077;-67
2021/06/22 11:34:23;;;;;;;8.77;4.07;;;37.10;25.10;;;;;;4978728;28;20042;-67
2021/06/22 11:36:54;;;;;;;7.28;4.13;;;36.30;25.90;;;;;;5010168;28;20455;-67
2021/06/22 11:39:33;;;;;;;8.60;4.10;;;35.90;26.10;;;;;;5018094;28;20060;-66
2021/06/22 11:42:11;;;;;;;8.23;3.88;;;36.00;24.90;;;;;;4997906;28;20053;-67
2021/06/22 11:44:43;;;;;;;5.80;3.83;;;35.90;25.20;;;;;;5008513;28;20124;-68
2021/06/22 11:47:24;;;;;;;7.63;3.85;;;35.70;25.60;;;;;;5003025;28;20087;-67
2021/06/22 11:49:51;;;;;;;8.75;4.15;;;35.80;25.40;;;;;;4983187;28;20038;-67
2021/06/22 11:52:20;;;;;;;9.23;3.65;;;35.80;26.00;;;;;;4996049;28;20677;-66
2021/06/22 11:54:52;;;;;;;12.77;5.70;;;36.20;25.50;;;;;;5007764;28;20139;-66
2021/06/22 11:57:19;;;;;;;9.15;5.40;;;36.00;24.90;;;;;;5001958;28;20041;-67
2021/06/22 11:59:46;;;;;;;8.05;4.63;;;36.20;25.40;;;;;;5005683;28;20113;-66
2021/06/22 12:02:12;;;;;;;7.28;3.53;;;36.50;24.00;;;;;;4994274;28;20073;-67
2021/06/22 12:04:38;;;;;;;6.45;3.53;;;37.00;24.30;;;;;;5000324;28;20049;-67
2021/06/22 12:07:04;;;;;;;7.45;3.55;;;37.40;23.80;;;;;;5014940;28;20033;-67
2021/06/22 12:09:30;;;;;;;4.88;3.35;;;38.30;23.20;;;;;;5018416;28;20131;-67
2021/06/22 12:11:56;;;;;;;6.57;3.30;;;38.90;22.60;;;;;;5008343;28;20467;-67
2021/06/22 12:14:22;;;;;;;8.65;3.60;;;38.90;21.60;;;;;;5015098;28;20084;-67
2021/06/22 12:16:48;;;;;;;7.82;3.75;;;39.40;21.20;;;;;;5006567;28;20464;-67
2021/06/22 12:19:18;;;;;;;4.45;3.10;;;38.70;21.70;;;;;;5000841;28;20052;-66
2021/06/22 12:21:49;;;;;;;5.40;3.33;;;38.70;20.90;;;;;;4995251;28;20040;-66
2021/06/22 12:24:16;;;;;;;5.55;3.30;;;39.20;21.00;;;;;;5010450;28;20049;-66
2021/06/22 12:26:43;;;;;;;4.47;3.42;;;39.50;21.60;;;;;;4998676;28;20111;-67
2021/06/22 12:29:20;;;;;;;8.30;4.55;;;39.50;21.60;;;;;;5001902;28;20113;-67
2021/06/22 12:31:56;;;;;;;8.05;4.55;;;39.90;21.30;;;;;;5010455;28;20519;-67
2021/06/22 12:34:23;;;;;;;5.72;3.97;;;39.10;21.50;;;;;;5013265;28;20092;-68
2021/06/22 12:36:49;;;;;;;7.22;4.53;;;39.90;21.50;;;;;;5003807;28;20038;-68
2021/06/22 12:39:16;;;;;;;10.25;3.53;;;40.40;21.20;;;;;;4996311;28;20499;-67
2021/06/22 12:41:43;;;;;;;5.85;2.97;;;41.10;20.30;;;;;;5003512;28;20163;-68
2021/06/22 12:44:09;;;;;;;11.15;3.15;;;42.30;19.40;;;;;;5001710;28;20042;-67
2021/06/22 12:46:43;;;;;;;5.80;3.40;;;43.00;18.30;;;;;;5012837;28;20479;-68
2021/06/22 12:49:14;;;;;;;8.50;3.85;;;44.10;19.30;;;;;;4990557;28;20053;-68